createdAt,value
2019-03-22T00:02:15.195Z,26.80
2019-03-22T00:04:40.128Z,26.70
2019-03-22T00:07:07.182Z,26.80
2019-03-22T00:09:34.219Z,26.80
2019-03-22T00:12:04.133Z,26.70
2019-03-22T00:14:30.218Z,26.80
2019-03-22T00:16:57.290Z,26.70
2019-03-22T00:19:24.363Z,26.70
2019-03-22T00:27:16.392Z,26.70
2019-03-22T00:29:37.157Z,26.70
2019-03-22T00:32:04.275Z,26.70
2019-03-22T00:34:31.313Z,26.70
2019-03-22T00:36:58.408Z,26.70
2019-03-22T00:39:25.467Z,26.70
2019-03-22T00:41:52.508Z,26.70
2019-03-22T00:44:19.719Z,26.70
2019-03-22T00:46:46.795Z,26.70
2019-03-22T00:49:13.839Z,26.70
2019-03-22T00:51:41.069Z,26.70
2019-03-22T00:54:08.120Z,26.70
2019-03-22T00:56:35.188Z,26.70
2019-03-22T00:59:02.274Z,26.70
2019-03-22T01:01:29.464Z,26.70
2019-03-22T01:03:57.104Z,26.70
2019-03-22T01:06:34.150Z,26.70
2019-03-22T01:09:06.105Z,26.70
2019-03-22T01:11:40.730Z,26.70
2019-03-22T01:14:16.734Z,26.60
2019-03-22T01:16:52.581Z,26.60
2019-03-22T01:19:18.793Z,26.50
2019-03-22T01:21:45.824Z,26.50
2019-03-22T01:24:13.042Z,26.50
2019-03-22T01:26:40.077Z,26.50
2019-03-22T01:29:07.151Z,26.50
2019-03-22T01:31:34.195Z,26.50
2019-03-22T01:34:01.426Z,26.50
2019-03-22T01:36:28.508Z,26.50
2019-03-22T01:38:55.542Z,26.50
2019-03-22T01:41:22.776Z,26.50
2019-03-22T01:43:49.818Z,26.50
2019-03-22T01:46:16.884Z,26.60
2019-03-22T01:48:43.932Z,26.50
2019-03-22T01:51:11.002Z,26.50
2019-03-22T01:53:38.081Z,26.40
2019-03-22T01:56:05.155Z,26.40
2019-03-22T01:58:32.226Z,26.40
2019-03-22T02:00:59.301Z,26.50
2019-03-22T02:03:26.340Z,26.50
2019-03-22T02:05:53.422Z,26.50
2019-03-22T02:08:20.466Z,26.50
2019-03-22T02:10:47.546Z,26.50
2019-03-22T02:13:14.585Z,26.40
2019-03-22T02:15:41.848Z,26.40
2019-03-22T02:18:08.886Z,26.50
2019-03-22T02:20:35.959Z,26.40
2019-03-22T02:23:03.201Z,26.40
2019-03-22T02:25:30.270Z,26.50
2019-03-22T02:28:04.081Z,26.40
2019-03-22T02:30:26.105Z,26.40
2019-03-22T02:32:53.160Z,26.50
2019-03-22T02:35:28.987Z,26.50
2019-03-22T02:37:49.254Z,26.50
2019-03-22T02:40:16.291Z,26.40
2019-03-22T02:42:43.459Z,26.50
2019-03-22T02:45:10.733Z,26.40
2019-03-22T02:47:37.779Z,26.40
2019-03-22T02:50:17.129Z,26.50
2019-03-22T02:52:33.726Z,26.40
2019-03-22T02:55:00.809Z,26.50
2019-03-22T02:57:27.848Z,26.40
2019-03-22T02:59:54.935Z,26.40
2019-03-22T03:02:22.121Z,26.40
2019-03-22T03:04:49.207Z,26.40
2019-03-22T03:07:16.266Z,26.40
2019-03-22T03:09:43.322Z,26.40
2019-03-22T03:12:10.540Z,26.40
2019-03-22T03:14:37.593Z,26.40
2019-03-22T03:17:04.663Z,26.40
2019-03-22T03:19:31.815Z,26.40
2019-03-22T03:21:58.874Z,26.40
2019-03-22T03:24:25.956Z,26.40
2019-03-22T03:26:52.999Z,26.40
2019-03-22T03:29:20.061Z,26.30
2019-03-22T03:31:47.141Z,26.30
2019-03-22T03:34:14.352Z,26.30
2019-03-22T03:36:41.421Z,26.30
2019-03-22T03:39:08.545Z,26.30
2019-03-22T03:41:35.901Z,26.30
2019-03-22T03:44:02.977Z,26.30
2019-03-22T03:46:30.052Z,26.30
2019-03-22T03:48:57.100Z,26.30
2019-03-22T03:51:24.149Z,26.30
2019-03-22T03:53:51.341Z,26.30
2019-03-22T03:56:18.403Z,26.30
2019-03-22T03:58:52.230Z,26.20
2019-03-22T04:01:14.249Z,26.30
2019-03-22T04:03:41.301Z,26.30
2019-03-22T04:06:08.379Z,26.20
2019-03-22T04:08:35.460Z,26.20
2019-03-22T04:11:02.548Z,26.20
2019-03-22T04:13:29.590Z,26.20
2019-03-22T04:15:56.689Z,26.20
2019-03-22T04:18:23.761Z,26.10
2019-03-22T04:20:50.804Z,26.10
2019-03-22T04:23:17.973Z,26.10
2019-03-22T04:25:45.038Z,26.20
2019-03-22T04:28:12.091Z,26.10
2019-03-22T04:30:39.154Z,26.10
2019-03-22T04:33:06.754Z,26.10
2019-03-22T04:35:34.226Z,26.10
2019-03-22T04:38:01.264Z,26.10
2019-03-22T04:40:28.347Z,26.00
2019-03-22T04:42:55.391Z,26.10
2019-03-22T04:45:22.626Z,26.20
2019-03-22T04:47:49.930Z,26.10
2019-03-22T04:50:16.982Z,26.10
2019-03-22T04:52:44.175Z,26.10
2019-03-22T04:55:11.250Z,26.20
2019-03-22T04:57:38.328Z,26.10
2019-03-22T05:00:05.417Z,26.20
2019-03-22T05:02:32.579Z,26.30
2019-03-22T05:04:59.631Z,26.20
2019-03-22T05:07:26.676Z,26.30
2019-03-22T05:09:53.737Z,26.40
2019-03-22T05:12:20.963Z,26.30
2019-03-22T05:14:48.004Z,26.20
2019-03-22T05:17:15.442Z,26.50
2019-03-22T05:19:42.537Z,26.60
2019-03-22T05:22:09.580Z,26.50
2019-03-22T05:24:36.811Z,26.40
2019-03-22T05:27:03.860Z,26.30
2019-03-22T05:29:31.165Z,26.30
2019-03-22T05:31:58.264Z,26.30
2019-03-22T05:34:25.423Z,26.40
2019-03-22T05:36:52.540Z,26.70
2019-03-22T05:39:19.625Z,26.50
2019-03-22T05:41:46.665Z,26.30
2019-03-22T05:44:13.818Z,26.80
2019-03-22T05:46:40.897Z,26.20
2019-03-22T05:49:07.965Z,26.20
2019-03-22T05:51:35.356Z,26.30
2019-03-22T05:54:02.446Z,26.40
2019-03-22T05:56:29.519Z,26.30
2019-03-22T05:58:56.641Z,26.20
2019-03-22T06:01:23.701Z,26.40
2019-03-22T06:03:50.734Z,26.40
2019-03-22T06:06:17.855Z,26.20
2019-03-22T06:08:44.950Z,26.10
2019-03-22T06:11:11.992Z,26.10
2019-03-22T06:13:39.122Z,26.00
2019-03-22T06:16:06.289Z,26.00
2019-03-22T06:18:33.360Z,26.00
2019-03-22T06:21:00.452Z,25.90
2019-03-22T06:23:27.535Z,25.90
2019-03-22T06:25:54.601Z,25.80
2019-03-22T06:28:21.662Z,25.80
2019-03-22T06:30:48.733Z,25.90
2019-03-22T06:33:15.783Z,25.90
2019-03-22T06:35:43.058Z,26.00
2019-03-22T06:38:10.106Z,25.80
2019-03-22T06:40:37.151Z,25.70
2019-03-22T06:43:04.387Z,26.00
2019-03-22T06:45:31.431Z,26.20
2019-03-22T06:47:58.520Z,26.20
2019-03-22T06:50:25.583Z,26.80
2019-03-22T06:52:52.638Z,26.30
2019-03-22T06:55:19.822Z,26.40
2019-03-22T06:57:46.854Z,26.40
2019-03-22T07:00:13.961Z,26.40
2019-03-22T07:02:41.005Z,26.50
2019-03-22T07:05:08.230Z,26.50
2019-03-22T07:07:35.276Z,26.50
2019-03-22T07:10:02.344Z,26.40
2019-03-22T07:12:29.399Z,26.40
2019-03-22T07:14:56.692Z,26.40
2019-03-22T07:17:23.744Z,26.30
2019-03-22T07:19:50.821Z,26.30
2019-03-22T07:22:17.981Z,26.30
2019-03-22T07:24:45.062Z,26.30
2019-03-22T07:27:12.122Z,26.30
2019-03-22T07:29:39.193Z,26.30
2019-03-22T07:32:06.378Z,26.40
2019-03-22T07:34:33.407Z,26.40
2019-03-22T07:37:00.475Z,26.40
2019-03-22T07:39:27.532Z,26.30
2019-03-22T07:41:54.762Z,26.30
2019-03-22T07:44:21.809Z,26.40
2019-03-22T07:46:48.879Z,26.40
2019-03-22T07:49:15.924Z,26.40
2019-03-22T07:51:43.020Z,26.40
2019-03-22T07:54:10.070Z,26.40
2019-03-22T07:56:37.283Z,26.40
2019-03-22T07:59:04.339Z,26.50
2019-03-22T08:01:31.623Z,26.40
2019-03-22T08:04:00.437Z,26.50
2019-03-22T08:06:27.585Z,26.50
2019-03-22T08:08:54.692Z,26.50
2019-03-22T08:11:24.710Z,26.40
2019-03-22T08:13:50.777Z,26.30
2019-03-22T08:16:17.970Z,26.40
2019-03-22T08:18:47.963Z,26.40
2019-03-22T08:21:15.147Z,26.40
2019-03-22T08:23:42.324Z,26.40
2019-03-22T08:26:09.437Z,26.50
2019-03-22T08:28:36.605Z,26.40
2019-03-22T08:31:05.541Z,26.40
2019-03-22T08:33:32.689Z,26.40
2019-03-22T08:36:01.125Z,26.50
2019-03-22T08:38:33.097Z,26.50
2019-03-22T08:41:00.227Z,26.50
2019-03-22T08:43:27.612Z,26.40
2019-03-22T08:45:54.727Z,26.50
2019-03-22T08:48:21.771Z,26.50
2019-03-22T08:50:49.133Z,26.50
2019-03-22T08:53:16.307Z,26.40
2019-03-22T08:55:43.551Z,26.40
2019-03-22T08:58:10.898Z,26.40
2019-03-22T09:00:39.616Z,26.50
2019-03-22T09:03:07.086Z,26.50
2019-03-22T09:05:34.181Z,26.50
2019-03-22T09:08:01.344Z,26.40
2019-03-22T09:10:28.487Z,26.50
2019-03-22T09:12:55.968Z,26.50
2019-03-22T09:15:23.170Z,26.40
2019-03-22T09:17:50.367Z,26.40
2019-03-22T09:20:17.706Z,26.50
2019-03-22T09:22:44.842Z,26.50
2019-03-22T09:25:11.929Z,26.50
2019-03-22T09:27:39.152Z,26.40
2019-03-22T09:30:06.241Z,26.50
2019-03-22T09:32:33.507Z,26.50
2019-03-22T09:35:00.665Z,26.60
2019-03-22T09:37:27.967Z,26.60
2019-03-22T09:39:57.607Z,26.60
2019-03-22T09:42:26.469Z,26.60
2019-03-22T09:44:56.377Z,27.20
2019-03-22T09:47:25.328Z,26.60
2019-03-22T09:50:01.493Z,26.60
2019-03-22T09:52:28.677Z,26.60
2019-03-22T09:54:56.131Z,26.60
2019-03-22T09:57:28.797Z,26.60
2019-03-22T09:59:52.335Z,26.60
2019-03-22T10:02:20.068Z,26.60
2019-03-22T10:04:47.552Z,26.70
2019-03-22T10:07:14.766Z,26.60
2019-03-22T10:09:43.765Z,26.70
2019-03-22T10:12:11.285Z,26.70
2019-03-22T10:14:38.361Z,26.80
2019-03-22T10:17:05.575Z,26.70
2019-03-22T10:19:32.808Z,26.70
2019-03-22T10:21:59.887Z,26.80
2019-03-22T10:24:27.185Z,26.70
2019-03-22T10:26:54.422Z,26.70
2019-03-22T10:29:21.590Z,26.70
2019-03-22T10:31:48.817Z,26.80
2019-03-22T10:34:15.937Z,26.80
2019-03-22T10:36:43.112Z,26.80
2019-03-22T10:39:10.271Z,26.80
2019-03-22T10:41:37.648Z,26.80
2019-03-22T10:44:04.872Z,26.90
2019-03-22T10:46:32.114Z,26.80
2019-03-22T10:48:59.181Z,26.90
2019-03-22T10:51:28.564Z,26.80
2019-03-22T10:53:55.725Z,26.90
2019-03-22T10:56:25.065Z,26.80
2019-03-22T10:58:51.606Z,26.80
2019-03-22T11:01:18.716Z,26.80
2019-03-22T11:03:45.993Z,26.80
2019-03-22T11:06:13.149Z,26.90
2019-03-22T11:08:40.263Z,26.90
2019-03-22T11:11:07.435Z,27.10
2019-03-22T11:13:34.480Z,27.10
2019-03-22T11:16:01.594Z,27.10
2019-03-22T11:18:37.044Z,27.00
2019-03-22T11:21:04.782Z,27.00
2019-03-22T11:23:26.344Z,27.10
2019-03-22T11:26:03.570Z,27.00
2019-03-22T11:28:22.562Z,27.00
2019-03-22T11:30:52.582Z,27.00
2019-03-22T11:33:19.696Z,27.10
2019-03-22T11:35:46.773Z,27.10
2019-03-22T11:38:13.902Z,27.40
2019-03-22T11:40:40.980Z,27.30
2019-03-22T11:43:09.118Z,27.40
2019-03-22T11:45:36.305Z,27.30
2019-03-22T11:48:03.398Z,27.30
2019-03-22T11:50:30.531Z,27.30
2019-03-22T11:52:57.733Z,27.50
2019-03-22T11:55:24.808Z,27.50
2019-03-22T11:57:51.883Z,27.50
2019-03-22T12:00:18.940Z,27.40
2019-03-22T12:02:46.010Z,27.50
2019-03-22T12:05:13.087Z,27.40
2019-03-22T12:07:40.214Z,27.40
2019-03-22T12:10:07.307Z,27.40
2019-03-22T12:12:34.347Z,27.40
2019-03-22T12:15:01.429Z,27.50
2019-03-22T12:17:28.622Z,27.60
2019-03-22T12:19:55.666Z,27.40
2019-03-22T12:22:22.726Z,27.80
2019-03-22T12:24:49.969Z,27.80
2019-03-22T12:27:17.016Z,27.80
2019-03-22T12:29:44.078Z,27.60
2019-03-22T12:32:11.746Z,27.60
2019-03-22T12:34:38.805Z,27.70
2019-03-22T12:37:05.891Z,27.60
2019-03-22T12:39:32.930Z,27.70
2019-03-22T12:41:59.970Z,27.70
2019-03-22T12:44:27.191Z,27.70
2019-03-22T12:46:54.222Z,27.60
2019-03-22T12:49:21.328Z,27.70
2019-03-22T12:51:48.506Z,27.80
2019-03-22T12:54:15.548Z,27.90
2019-03-22T12:56:42.635Z,27.80
2019-03-22T12:59:09.683Z,27.80
2019-03-22T13:01:37.119Z,27.80
2019-03-22T13:04:04.198Z,28.10
2019-03-22T13:06:31.242Z,28.10
2019-03-22T13:09:06.631Z,28.10
2019-03-22T13:11:33.388Z,28.10
2019-03-22T13:14:00.537Z,28.10
2019-03-22T13:16:27.586Z,28.10
2019-03-22T13:18:54.673Z,28.10
2019-03-22T13:21:21.732Z,28.10
2019-03-22T13:23:48.975Z,28.10
2019-03-22T13:26:16.053Z,28.20
2019-03-22T13:28:43.179Z,28.30
2019-03-22T13:31:11.671Z,28.30
2019-03-22T13:33:38.881Z,28.20
2019-03-22T13:36:05.938Z,28.10
2019-03-22T13:38:33.005Z,28.10
2019-03-22T13:41:02.772Z,28.10
2019-03-22T13:43:29.842Z,28.20
2019-03-22T13:45:56.883Z,28.30
2019-03-22T13:48:24.423Z,28.30
2019-03-22T13:50:51.537Z,28.40
2019-03-22T13:53:18.644Z,28.30
2019-03-22T13:55:45.684Z,28.40
2019-03-22T13:58:12.766Z,28.30
2019-03-22T14:00:39.854Z,28.20
2019-03-22T14:03:06.892Z,28.20
2019-03-22T14:05:33.991Z,28.20
2019-03-22T14:08:01.089Z,28.20
2019-03-22T14:10:28.190Z,28.20
2019-03-22T14:12:55.431Z,28.10
2019-03-22T14:15:22.485Z,28.10
2019-03-22T14:17:49.572Z,28.00
2019-03-22T14:20:16.609Z,27.80
2019-03-22T14:22:43.813Z,27.80
2019-03-22T14:25:10.863Z,28.00
2019-03-22T14:27:37.928Z,28.00
2019-03-22T14:30:05.012Z,28.00
2019-03-22T14:32:33.041Z,27.90
2019-03-22T14:35:00.309Z,28.00
2019-03-22T14:37:27.337Z,28.00
2019-03-22T14:39:54.410Z,28.10
2019-03-22T14:42:21.636Z,28.50
2019-03-22T14:44:48.756Z,28.50
2019-03-22T14:47:16.132Z,28.50
2019-03-22T14:49:43.232Z,28.50
2019-03-22T14:52:10.267Z,28.40
2019-03-22T14:54:37.494Z,28.40
2019-03-22T14:57:04.588Z,28.40
2019-03-22T14:59:31.629Z,28.40
2019-03-22T15:01:58.675Z,28.40
2019-03-22T15:04:25.754Z,28.30
2019-03-22T15:06:52.795Z,28.40
2019-03-22T15:09:19.841Z,28.90
2019-03-22T15:11:47.026Z,28.50
2019-03-22T15:14:14.102Z,28.40
2019-03-22T15:16:41.235Z,28.40
2019-03-22T15:19:08.287Z,28.50
2019-03-22T15:21:35.363Z,28.50
2019-03-22T15:24:04.127Z,28.40
2019-03-22T15:26:31.204Z,28.40
2019-03-22T15:28:58.317Z,28.40
2019-03-22T15:31:25.408Z,28.40
2019-03-22T15:36:19.876Z,28.40
2019-03-22T15:38:46.991Z,28.50
2019-03-22T15:43:50.931Z,28.50
2019-03-22T15:46:18.019Z,28.40
2019-03-22T15:48:45.093Z,28.40
2019-03-22T15:51:12.142Z,28.40
2019-03-22T15:53:39.489Z,28.50
2019-03-22T15:56:06.579Z,28.40
2019-03-22T15:58:33.638Z,28.30
2019-03-22T16:01:00.889Z,28.30
2019-03-22T16:03:27.995Z,28.30
2019-03-22T16:05:55.045Z,28.30
2019-03-22T16:08:22.103Z,28.40
2019-03-22T16:10:49.183Z,28.30
2019-03-22T16:13:18.074Z,28.20
2019-03-22T16:15:45.181Z,28.30
2019-03-22T16:18:12.274Z,28.20
2019-03-22T16:20:39.423Z,28.10
2019-03-22T16:23:07.111Z,28.30
2019-03-22T16:25:34.268Z,28.40
2019-03-22T16:28:01.306Z,28.40
2019-03-22T16:30:28.381Z,28.30
2019-03-22T16:32:55.619Z,28.30
2019-03-22T16:35:22.973Z,28.20
2019-03-22T16:37:50.144Z,28.20
2019-03-22T16:40:24.157Z,28.20
2019-03-22T16:42:46.590Z,28.10
2019-03-22T16:45:13.683Z,28.10
2019-03-22T16:47:40.774Z,28.10
2019-03-22T16:50:07.880Z,28.10
2019-03-22T16:52:37.097Z,28.20
2019-03-22T16:55:04.359Z,28.30
2019-03-22T16:57:31.422Z,28.10
2019-03-22T16:59:58.495Z,28.20
2019-03-22T17:02:26.468Z,28.30
2019-03-22T17:04:53.515Z,28.30
2019-03-22T17:07:20.562Z,28.10
2019-03-22T17:09:47.638Z,28.30
2019-03-22T17:12:14.683Z,28.20
2019-03-22T17:14:41.940Z,28.10
2019-03-22T17:17:08.982Z,28.10
2019-03-22T17:19:36.062Z,28.20
2019-03-22T17:22:03.103Z,28.10
2019-03-22T17:24:30.333Z,28.00
2019-03-22T17:26:57.394Z,28.10
2019-03-22T17:29:24.504Z,28.10
2019-03-22T17:31:51.550Z,28.20
2019-03-22T17:34:18.741Z,28.30
2019-03-22T17:36:45.883Z,28.20
2019-03-22T17:39:12.935Z,28.20
2019-03-22T17:41:40.071Z,28.20
2019-03-22T17:44:07.122Z,28.30
2019-03-22T17:46:34.195Z,28.30
2019-03-22T17:49:01.236Z,28.20
2019-03-22T17:51:30.193Z,28.20
2019-03-22T17:53:57.436Z,28.40
2019-03-22T17:56:24.507Z,28.30
2019-03-22T17:58:51.590Z,28.30
2019-03-22T18:01:18.673Z,28.20
2019-03-22T18:03:45.739Z,28.20
2019-03-22T18:06:12.787Z,28.40
2019-03-22T18:08:39.909Z,28.40
2019-03-22T18:11:06.979Z,28.50
2019-03-22T18:13:34.017Z,28.50
2019-03-22T18:16:01.085Z,28.40
2019-03-22T18:18:28.164Z,28.30
2019-03-22T18:20:55.298Z,28.50
2019-03-22T18:23:22.557Z,28.30
2019-03-22T18:25:49.642Z,28.50
2019-03-22T18:28:16.709Z,28.60
2019-03-22T18:30:43.770Z,28.60
2019-03-22T18:33:10.862Z,28.40
2019-03-22T18:35:37.944Z,28.40
2019-03-22T18:38:05.016Z,28.70
2019-03-22T18:40:32.118Z,28.70
2019-03-22T18:42:59.829Z,28.50
2019-03-22T18:45:26.936Z,28.50
2019-03-22T18:47:54.054Z,28.50
2019-03-22T18:50:21.165Z,28.40
2019-03-22T18:52:48.377Z,28.40
2019-03-22T18:55:15.470Z,28.50
2019-03-22T18:57:42.595Z,28.60
2019-03-22T19:00:09.634Z,28.60
2019-03-22T19:02:36.752Z,28.60
2019-03-22T19:05:03.807Z,28.40
2019-03-22T19:07:30.945Z,28.70
2019-03-22T19:09:58.037Z,28.60
2019-03-22T19:12:25.153Z,28.50
2019-03-22T19:14:52.212Z,28.50
2019-03-22T19:17:20.089Z,28.60
2019-03-22T19:19:47.233Z,28.50
2019-03-22T19:22:14.347Z,28.50
2019-03-22T19:24:41.660Z,28.50
2019-03-22T19:27:08.732Z,28.50
2019-03-22T19:29:35.924Z,28.50
2019-03-22T19:32:13.022Z,28.50
2019-03-22T19:34:31.885Z,28.30
2019-03-22T19:36:58.910Z,28.60
2019-03-22T19:39:25.996Z,28.50
2019-03-22T19:41:53.384Z,28.50
2019-03-22T19:44:20.437Z,28.60
2019-03-22T19:46:47.722Z,28.60
2019-03-22T19:49:14.763Z,28.50
2019-03-22T19:51:42.007Z,28.50
2019-03-22T19:54:09.079Z,28.60
2019-03-22T19:56:36.208Z,28.50
2019-03-22T19:59:03.252Z,28.60
2019-03-22T20:01:30.399Z,28.60
2019-03-22T20:03:57.548Z,28.50
2019-03-22T20:06:24.602Z,28.50
2019-03-22T20:08:51.690Z,28.40
2019-03-22T20:11:19.196Z,28.30
2019-03-22T20:13:46.454Z,28.30
2019-03-22T20:16:13.530Z,28.30
2019-03-22T20:18:40.611Z,28.50
2019-03-22T20:21:07.723Z,28.40
2019-03-22T20:23:35.110Z,28.30
2019-03-22T20:26:02.396Z,28.20
2019-03-22T20:28:29.583Z,28.10
2019-03-22T20:30:56.697Z,28.10
2019-03-22T20:33:23.874Z,28.10
2019-03-22T20:35:50.942Z,28.10
2019-03-22T20:38:18.000Z,28.10
2019-03-22T20:40:45.096Z,28.00
2019-03-22T20:43:12.267Z,28.00
2019-03-22T20:45:39.327Z,28.10
2019-03-22T20:48:06.627Z,28.00
2019-03-22T20:50:36.086Z,28.10
2019-03-22T20:53:02.735Z,28.10
2019-03-22T20:55:29.876Z,28.00
2019-03-22T20:57:57.002Z,28.00
2019-03-22T21:00:24.437Z,28.00
2019-03-22T21:02:51.732Z,28.10
2019-03-22T21:05:26.832Z,28.40
2019-03-22T21:07:47.623Z,28.30
2019-03-22T21:10:14.735Z,28.30
2019-03-22T21:12:41.951Z,28.40
2019-03-22T21:15:09.029Z,28.40
2019-03-22T21:17:36.092Z,28.20
2019-03-22T21:20:03.266Z,28.30
2019-03-22T21:22:30.312Z,28.40
2019-03-22T21:24:57.376Z,28.30
2019-03-22T21:27:24.658Z,28.30
2019-03-22T21:29:51.764Z,28.40
2019-03-22T21:32:19.464Z,28.40
2019-03-22T21:34:46.547Z,28.40
2019-03-22T21:37:13.624Z,28.40
2019-03-22T21:39:40.755Z,28.50
2019-03-22T21:42:07.948Z,28.40
2019-03-22T21:44:35.064Z,28.50
2019-03-22T21:47:02.159Z,28.40
2019-03-22T21:49:30.190Z,28.50
2019-03-22T21:51:57.344Z,28.40
2019-03-22T21:54:24.428Z,28.40
2019-03-22T21:57:02.954Z,28.40
2019-03-22T21:59:41.967Z,28.40
2019-03-22T22:02:16.936Z,28.40
2019-03-22T22:04:54.242Z,28.40
2019-03-22T22:07:28.906Z,28.40
2019-03-22T22:10:06.881Z,28.40
2019-03-22T22:12:40.189Z,28.40
2019-03-22T22:15:10.730Z,28.40
2019-03-22T22:17:45.058Z,28.30
2019-03-22T22:20:28.940Z,28.30
2019-03-22T22:22:59.691Z,28.30
2019-03-22T22:25:35.999Z,28.30
2019-03-22T22:28:12.934Z,28.30
2019-03-22T22:30:48.428Z,28.80
2019-03-22T22:33:24.623Z,28.20
2019-03-22T22:36:00.367Z,28.30
2019-03-22T22:38:36.574Z,28.30
2019-03-22T22:41:12.526Z,28.20
2019-03-22T22:43:48.943Z,28.20
2019-03-22T22:46:22.797Z,28.30
2019-03-22T22:48:55.922Z,28.20
2019-03-22T22:51:34.285Z,28.10
2019-03-22T22:54:00.423Z,28.00
2019-03-22T22:56:27.559Z,27.90
2019-03-22T22:58:54.647Z,27.90
2019-03-22T23:01:22.171Z,27.80
2019-03-22T23:03:49.335Z,27.70
2019-03-22T23:06:16.793Z,27.60
2019-03-22T23:08:43.868Z,27.60
2019-03-22T23:11:10.932Z,27.70
2019-03-22T23:13:38.096Z,27.70
2019-03-22T23:16:05.217Z,27.70
2019-03-22T23:18:32.434Z,27.80
2019-03-22T23:21:06.890Z,27.80
2019-03-22T23:23:34.271Z,27.70
2019-03-22T23:26:10.039Z,27.60
2019-03-22T23:28:41.898Z,27.60
2019-03-22T23:31:19.068Z,27.60
2019-03-22T23:33:50.770Z,27.60
2019-03-22T23:36:28.493Z,27.60
2019-03-22T23:39:02.070Z,27.60
2019-03-22T23:41:35.340Z,27.60
2019-03-22T23:44:11.493Z,27.60
2019-03-22T23:46:47.421Z,27.70
2019-03-22T23:49:20.548Z,27.60
2019-03-22T23:51:56.433Z,27.60
2019-03-22T23:54:22.544Z,27.60
2019-03-22T23:56:58.815Z,27.60
2019-03-22T23:59:28.599Z,27.50
